createdAt,value
2018-01-15T00:01:52.302Z,9.57
2018-01-15T00:04:19.834Z,7.90
2018-01-15T00:06:47.371Z,7.20
2018-01-15T00:09:14.922Z,10.47
2018-01-15T00:11:42.457Z,7.23
2018-01-15T00:14:10.042Z,8.37
2018-01-15T00:16:37.642Z,7.43
2018-01-15T00:19:05.278Z,7.40
2018-01-15T00:21:32.878Z,7.67
2018-01-15T00:24:00.483Z,6.43
2018-01-15T00:26:28.074Z,7.00
2018-01-15T00:28:55.607Z,7.97
2018-01-15T00:31:23.141Z,8.97
2018-01-15T00:33:50.682Z,8.93
2018-01-15T00:36:18.217Z,8.37
2018-01-15T00:38:45.821Z,9.00
2018-01-15T00:41:13.419Z,7.20
2018-01-15T00:43:40.950Z,8.83
2018-01-15T00:46:08.550Z,7.40
2018-01-15T00:48:36.093Z,8.67
2018-01-15T00:51:03.731Z,9.20
2018-01-15T00:53:31.330Z,11.47
2018-01-15T00:55:58.925Z,10.10
2018-01-15T00:58:26.530Z,10.03
2018-01-15T01:00:54.126Z,9.63
2018-01-15T01:03:21.714Z,10.07
2018-01-15T01:05:49.261Z,10.60
2018-01-15T01:08:16.861Z,10.77
2018-01-15T01:10:44.446Z,10.30
2018-01-15T01:13:12.039Z,9.93
2018-01-15T01:15:39.630Z,11.53
2018-01-15T01:18:07.169Z,11.73
2018-01-15T01:20:34.729Z,11.17
2018-01-15T01:23:02.285Z,10.53
2018-01-15T01:25:29.886Z,10.60
2018-01-15T01:27:57.482Z,10.03
2018-01-15T01:30:25.085Z,12.47
2018-01-15T01:32:52.658Z,11.73
2018-01-15T01:35:20.210Z,10.20
2018-01-15T01:37:47.806Z,10.63
2018-01-15T01:40:15.451Z,12.37
2018-01-15T01:42:43.021Z,11.20
2018-01-15T01:45:10.565Z,11.43
2018-01-15T01:47:38.113Z,10.13
2018-01-15T01:50:05.654Z,11.73
2018-01-15T01:52:33.316Z,11.30
2018-01-15T01:55:00.866Z,11.43
2018-01-15T01:57:28.406Z,12.10
2018-01-15T01:59:55.949Z,9.80
2018-01-15T02:02:23.485Z,12.30
2018-01-15T02:04:51.126Z,16.37
2018-01-15T02:07:18.661Z,9.70
2018-01-15T02:09:46.271Z,10.93
2018-01-15T02:12:13.822Z,11.20
2018-01-15T02:14:41.365Z,12.30
2018-01-15T02:17:08.951Z,11.17
2018-01-15T02:19:36.570Z,13.07
2018-01-15T02:22:04.118Z,11.43
2018-01-15T02:24:31.742Z,11.07
2018-01-15T02:26:59.289Z,13.07
2018-01-15T02:29:26.963Z,13.20
2018-01-15T02:31:54.523Z,11.40
2018-01-15T02:34:22.070Z,12.17
2018-01-15T02:36:49.622Z,12.13
2018-01-15T02:39:17.163Z,12.53
2018-01-15T02:41:44.747Z,12.73
2018-01-15T02:44:12.291Z,11.63
2018-01-15T02:46:39.897Z,11.73
2018-01-15T02:49:07.498Z,12.23
2018-01-15T02:51:35.037Z,11.50
2018-01-15T02:54:02.621Z,13.50
2018-01-15T02:56:30.168Z,11.20
2018-01-15T02:58:57.767Z,11.90
2018-01-15T03:01:25.314Z,12.93
2018-01-15T03:03:52.858Z,15.73
2018-01-15T03:06:20.456Z,11.87
2018-01-15T03:08:48.006Z,13.60
2018-01-15T03:11:15.551Z,11.40
2018-01-15T03:13:43.167Z,13.00
2018-01-15T03:16:10.708Z,11.63
2018-01-15T03:18:38.299Z,11.13
2018-01-15T03:21:05.837Z,12.33
2018-01-15T03:23:33.377Z,11.60
2018-01-15T03:26:00.986Z,10.67
2018-01-15T03:28:28.534Z,11.70
2018-01-15T03:30:56.187Z,11.80
2018-01-15T03:33:23.725Z,11.13
2018-01-15T03:35:51.326Z,11.67
2018-01-15T03:38:18.939Z,11.50
2018-01-15T03:40:46.533Z,11.43
2018-01-15T03:43:14.182Z,11.67
2018-01-15T03:45:41.721Z,11.50
2018-01-15T03:48:09.318Z,12.20
2018-01-15T03:50:36.926Z,11.47
2018-01-15T03:53:04.465Z,12.20
2018-01-15T03:55:32.058Z,12.37
2018-01-15T03:57:59.598Z,12.23
2018-01-15T04:00:27.142Z,11.93
2018-01-15T04:02:54.685Z,11.80
2018-01-15T04:05:22.286Z,16.20
2018-01-15T04:07:49.962Z,12.50
2018-01-15T04:10:17.501Z,11.30
2018-01-15T04:12:45.102Z,14.03
2018-01-15T04:15:12.645Z,14.43
2018-01-15T04:17:40.186Z,16.10
2018-01-15T04:20:07.797Z,12.20
2018-01-15T04:22:35.398Z,11.40
2018-01-15T04:25:02.999Z,11.63
2018-01-15T04:27:30.519Z,10.80
2018-01-15T04:29:58.115Z,11.90
2018-01-15T04:32:25.759Z,12.17
2018-01-15T04:34:53.298Z,10.60
2018-01-15T04:37:20.894Z,10.43
2018-01-15T04:39:48.503Z,11.27
2018-01-15T04:42:16.046Z,10.73
2018-01-15T04:44:43.649Z,11.83
2018-01-15T04:47:11.190Z,13.77
2018-01-15T04:49:38.730Z,12.60
2018-01-15T04:52:06.340Z,12.43
2018-01-15T04:54:33.934Z,12.20
2018-01-15T04:57:01.575Z,9.63
2018-01-15T04:59:29.121Z,11.53
2018-01-15T05:01:56.672Z,11.63
2018-01-15T05:04:24.286Z,12.63
2018-01-15T05:06:51.825Z,16.30
2018-01-15T05:09:19.467Z,20.37
2018-01-15T05:11:47.045Z,38.00
2018-01-15T05:14:14.638Z,36.77
2018-01-15T05:16:42.242Z,13.30
2018-01-15T05:19:09.773Z,11.70
2018-01-15T05:21:37.422Z,12.87
2018-01-15T05:24:04.961Z,18.67
2018-01-15T05:26:32.570Z,13.33
2018-01-15T05:29:00.114Z,11.40
2018-01-15T05:31:27.649Z,11.27
2018-01-15T05:33:55.298Z,11.37
2018-01-15T05:36:22.838Z,11.47
2018-01-15T05:38:50.379Z,11.10
2018-01-15T05:41:17.925Z,12.73
2018-01-15T05:43:45.522Z,13.33
2018-01-15T05:46:13.102Z,14.20
2018-01-15T05:48:40.639Z,12.63
2018-01-15T05:51:08.185Z,13.10
2018-01-15T05:53:35.736Z,12.60
2018-01-15T05:56:03.277Z,14.10
2018-01-15T05:58:30.857Z,14.60
2018-01-15T06:00:58.393Z,18.47
2018-01-15T06:03:26.002Z,21.43
2018-01-15T06:05:53.606Z,17.73
2018-01-15T06:08:21.145Z,16.27
2018-01-15T06:10:48.734Z,16.07
2018-01-15T06:13:16.316Z,17.33
2018-01-15T06:15:43.853Z,18.97
2018-01-15T06:18:11.398Z,20.93
2018-01-15T06:20:38.942Z,19.00
2018-01-15T06:23:06.538Z,20.77
2018-01-15T06:25:34.086Z,20.43
2018-01-15T06:28:01.622Z,17.50
2018-01-15T06:30:29.235Z,15.20
2018-01-15T06:32:56.830Z,15.30
2018-01-15T06:35:24.443Z,13.90
2018-01-15T06:37:52.038Z,15.20
2018-01-15T06:40:19.573Z,15.23
2018-01-15T06:42:47.118Z,16.77
2018-01-15T06:45:14.654Z,17.77
2018-01-15T06:47:42.326Z,13.73
2018-01-15T06:50:09.865Z,15.07
2018-01-15T06:52:37.406Z,13.17
2018-01-15T06:55:04.958Z,13.40
2018-01-15T06:57:32.493Z,14.30
2018-01-15T07:00:00.091Z,16.57
2018-01-15T07:02:27.633Z,17.03
2018-01-15T07:04:55.175Z,14.27
2018-01-15T07:07:22.782Z,17.90
2018-01-15T07:09:50.326Z,14.10
2018-01-15T07:12:17.942Z,12.93
2018-01-15T07:14:45.482Z,14.07
2018-01-15T07:17:13.044Z,14.73
2018-01-15T07:19:40.585Z,12.43
2018-01-15T07:22:08.121Z,13.53
2018-01-15T07:24:35.738Z,13.73
2018-01-15T07:27:03.273Z,13.60
2018-01-15T07:29:30.876Z,12.60
2018-01-15T07:31:58.478Z,14.23
2018-01-15T07:34:25.990Z,12.33
2018-01-15T07:36:53.569Z,13.97
2018-01-15T07:39:21.103Z,14.80
2018-01-15T07:41:48.642Z,12.43
2018-01-15T07:44:16.198Z,12.50
2018-01-15T07:46:43.794Z,12.27
2018-01-15T07:49:11.385Z,10.00
2018-01-15T07:51:38.982Z,10.70
2018-01-15T07:54:06.529Z,10.57
2018-01-15T07:56:34.078Z,11.60
2018-01-15T07:59:01.622Z,12.93
2018-01-15T08:01:29.201Z,16.27
2018-01-15T08:03:56.745Z,23.73
2018-01-15T08:06:24.285Z,15.80
2018-01-15T08:08:51.830Z,16.87
2018-01-15T08:11:19.365Z,14.60
2018-01-15T08:13:47.034Z,15.40
2018-01-15T08:16:14.578Z,15.87
2018-01-15T08:18:42.178Z,13.63
2018-01-15T08:21:09.722Z,16.03
2018-01-15T08:23:37.266Z,15.23
2018-01-15T08:26:05.565Z,13.77
2018-01-15T08:28:33.106Z,15.80
2018-01-15T08:31:00.703Z,17.83
2018-01-15T08:33:28.250Z,19.87
2018-01-15T08:35:55.900Z,19.27
2018-01-15T08:38:23.486Z,21.63
2018-01-15T08:40:51.022Z,18.27
2018-01-15T08:43:18.630Z,10.80
2018-01-15T08:45:46.182Z,11.90
2018-01-15T08:48:13.722Z,16.90
2018-01-15T08:50:41.334Z,17.33
2018-01-15T08:53:08.869Z,13.43
2018-01-15T08:55:36.466Z,13.90
2018-01-15T08:58:04.010Z,14.20
2018-01-15T09:00:31.549Z,14.47
2018-01-15T09:02:59.134Z,14.53
2018-01-15T09:05:26.730Z,20.57
2018-01-15T09:07:54.388Z,15.87
2018-01-15T09:10:21.936Z,15.53
2018-01-15T09:12:49.481Z,14.30
2018-01-15T09:15:17.122Z,14.67
2018-01-15T09:17:44.727Z,14.77
2018-01-15T09:20:12.331Z,14.10
2018-01-15T09:22:39.927Z,16.87
2018-01-15T09:25:07.507Z,14.10
2018-01-15T09:27:35.086Z,19.77
2018-01-15T09:30:02.630Z,21.73
2018-01-15T09:32:30.169Z,20.83
2018-01-15T09:34:57.720Z,15.77
2018-01-15T09:37:25.318Z,17.87
2018-01-15T09:39:52.905Z,16.50
2018-01-15T09:42:20.445Z,22.40
2018-01-15T09:44:47.988Z,15.17
2018-01-15T09:47:15.562Z,15.70
2018-01-15T09:49:43.102Z,14.57
2018-01-15T09:52:10.686Z,13.10
2018-01-15T09:54:38.282Z,21.83
2018-01-15T09:57:05.826Z,19.80
2018-01-15T09:59:33.378Z,17.93
2018-01-15T10:02:00.983Z,15.20
2018-01-15T10:04:28.570Z,20.27
2018-01-15T10:06:56.111Z,16.53
2018-01-15T10:09:23.650Z,11.70
2018-01-15T10:11:51.254Z,11.17
2018-01-15T10:14:18.794Z,12.67
2018-01-15T10:16:46.383Z,13.83
2018-01-15T10:19:13.983Z,13.97
2018-01-15T10:21:41.582Z,14.20
2018-01-15T10:24:09.185Z,16.50
2018-01-15T10:26:37.550Z,14.40
2018-01-15T10:29:05.165Z,13.87
2018-01-15T10:31:32.763Z,15.40
2018-01-15T10:34:00.306Z,13.43
2018-01-15T10:36:27.914Z,15.03
2018-01-15T10:38:55.526Z,20.20
2018-01-15T10:41:23.198Z,13.47
2018-01-15T10:43:50.742Z,15.60
2018-01-15T10:46:18.277Z,17.90
2018-01-15T10:48:45.827Z,17.53
2018-01-15T10:51:13.424Z,15.70
2018-01-15T10:53:41.086Z,16.70
2018-01-15T10:56:08.637Z,15.00
2018-01-15T10:58:37.047Z,17.63
2018-01-15T11:01:10.262Z,19.57
2018-01-15T11:03:37.814Z,18.03
2018-01-15T11:06:05.417Z,15.90
2018-01-15T11:08:32.961Z,13.80
2018-01-15T11:11:00.502Z,19.60
2018-01-15T11:13:28.052Z,16.97
2018-01-15T11:15:55.677Z,16.67
2018-01-15T11:18:23.385Z,14.20
2018-01-15T11:20:50.845Z,17.80
2018-01-15T11:23:18.390Z,15.93
2018-01-15T11:25:45.941Z,15.77
2018-01-15T11:28:13.497Z,14.43
2018-01-15T11:30:41.154Z,16.87
2018-01-15T11:33:08.763Z,16.17
2018-01-15T11:35:36.306Z,16.03
2018-01-15T11:38:03.919Z,17.30
2018-01-15T11:40:31.464Z,19.10
2018-01-15T11:42:59.054Z,19.53
2018-01-15T11:45:26.594Z,14.50
2018-01-15T11:47:54.199Z,20.80
2018-01-15T11:50:21.764Z,19.80
2018-01-15T11:52:49.316Z,24.47
2018-01-15T11:55:16.918Z,20.73
2018-01-15T11:57:44.462Z,19.57
2018-01-15T12:00:12.003Z,21.30
2018-01-15T12:02:39.557Z,22.53
2018-01-15T12:05:07.159Z,29.20
2018-01-15T12:07:34.742Z,15.30
2018-01-15T12:10:02.285Z,11.83
2018-01-15T12:12:29.887Z,19.70
2018-01-15T12:14:57.493Z,16.50
2018-01-15T12:17:25.034Z,12.40
2018-01-15T12:19:52.627Z,17.80
2018-01-15T12:22:20.170Z,16.40
2018-01-15T12:24:47.711Z,19.57
2018-01-15T12:27:15.320Z,16.33
2018-01-15T12:29:42.854Z,15.60
2018-01-15T12:32:10.445Z,14.87
2018-01-15T12:34:38.074Z,14.30
2018-01-15T12:37:05.614Z,14.60
2018-01-15T12:39:33.162Z,24.43
2018-01-15T12:42:00.759Z,18.63
2018-01-15T12:44:28.345Z,14.07
2018-01-15T12:46:55.883Z,15.30
2018-01-15T12:49:23.422Z,15.77
2018-01-15T12:51:50.977Z,18.20
2018-01-15T12:54:18.514Z,14.70
2018-01-15T12:56:46.098Z,13.63
2018-01-15T12:59:13.637Z,10.40
2018-01-15T13:01:41.234Z,14.57
2018-01-15T13:04:08.838Z,15.10
2018-01-15T13:07:01.070Z,16.53
2018-01-15T13:09:28.682Z,16.20
2018-01-15T13:11:56.278Z,15.77
2018-01-15T13:14:23.830Z,21.67
2018-01-15T13:16:51.430Z,20.43
2018-01-15T13:19:19.102Z,18.47
2018-01-15T13:21:46.642Z,15.73
2018-01-15T13:24:14.215Z,17.90
2018-01-15T13:26:41.762Z,24.00
2018-01-15T13:29:09.310Z,25.30
2018-01-15T13:31:36.954Z,17.57
2018-01-15T13:34:04.554Z,21.20
2018-01-15T13:36:32.162Z,24.20
2018-01-15T13:38:59.710Z,21.50
2018-01-15T13:41:27.310Z,27.70
2018-01-15T13:43:54.894Z,18.90
2018-01-15T13:46:22.498Z,16.83
2018-01-15T13:48:50.038Z,25.40
2018-01-15T13:51:17.582Z,18.27
2018-01-15T13:53:45.121Z,15.93
2018-01-15T13:56:12.725Z,19.73
2018-01-15T13:58:40.262Z,16.53
2018-01-15T14:01:07.802Z,22.83
2018-01-15T14:03:35.357Z,24.30
2018-01-15T14:06:02.959Z,20.57
2018-01-15T14:08:30.630Z,19.17
2018-01-15T14:10:58.232Z,24.67
2018-01-15T14:13:25.830Z,18.70
2018-01-15T14:15:53.434Z,18.30
2018-01-15T14:18:20.969Z,19.83
2018-01-15T14:20:48.558Z,18.73
2018-01-15T14:23:16.101Z,17.37
2018-01-15T14:25:43.654Z,13.70
2018-01-15T14:28:11.202Z,15.10
2018-01-15T14:30:38.783Z,21.70
2018-01-15T14:33:06.417Z,18.90
2018-01-15T14:35:33.954Z,21.03
2018-01-15T14:38:01.494Z,21.27
2018-01-15T14:40:29.038Z,21.17
2018-01-15T14:42:56.629Z,23.87
2018-01-15T14:45:24.218Z,22.03
2018-01-15T14:47:51.822Z,34.40
2018-01-15T14:50:19.362Z,30.80
2018-01-15T14:52:46.970Z,27.67
2018-01-15T14:55:14.574Z,28.57
2018-01-15T14:57:42.240Z,23.10
2018-01-15T15:00:09.782Z,18.50
2018-01-15T15:02:37.321Z,18.60
2018-01-15T15:05:04.872Z,35.10
2018-01-15T15:07:32.422Z,36.13
2018-01-15T15:10:00.016Z,39.27
2018-01-15T15:12:27.623Z,34.63
2018-01-15T15:14:55.276Z,34.97
2018-01-15T15:17:22.834Z,30.50
2018-01-15T15:19:50.384Z,30.70
2018-01-15T15:22:18.071Z,25.40
2018-01-15T15:24:45.605Z,23.77
2018-01-15T15:27:13.142Z,22.07
2018-01-15T15:29:40.694Z,25.47
2018-01-15T15:32:08.233Z,24.53
2018-01-15T15:34:35.877Z,20.60
2018-01-15T15:37:03.409Z,21.17
2018-01-15T15:39:31.006Z,20.87
2018-01-15T15:41:58.614Z,21.37
2018-01-15T15:44:26.158Z,17.30
2018-01-15T15:46:53.770Z,21.10
2018-01-15T15:49:21.305Z,20.70
2018-01-15T15:51:48.846Z,24.17
2018-01-15T15:54:16.450Z,24.60
2018-01-15T15:56:43.986Z,25.53
2018-01-15T15:59:11.574Z,27.53
2018-01-15T16:01:39.105Z,31.37
2018-01-15T16:04:06.646Z,29.10
2018-01-15T16:06:34.251Z,29.90
2018-01-15T16:09:01.785Z,26.63
2018-01-15T16:11:29.394Z,28.17
2018-01-15T16:13:57.001Z,25.63
2018-01-15T16:16:24.585Z,24.03
2018-01-15T16:18:52.193Z,30.00
2018-01-15T16:21:19.790Z,28.37
2018-01-15T16:23:47.419Z,34.10
2018-01-15T16:26:15.014Z,39.10
2018-01-15T16:28:42.555Z,42.67
2018-01-15T16:31:10.162Z,39.27
2018-01-15T16:33:37.705Z,34.50
2018-01-15T16:36:05.347Z,35.80
2018-01-15T16:38:32.890Z,34.67
2018-01-15T16:41:00.433Z,31.87
2018-01-15T16:43:28.042Z,37.97
2018-01-15T16:45:55.661Z,35.97
2018-01-15T16:48:23.338Z,37.10
2018-01-15T16:50:50.880Z,37.40
2018-01-15T16:53:18.478Z,23.63
2018-01-15T16:55:46.026Z,28.87
2018-01-15T16:58:13.568Z,25.17
2018-01-15T17:00:41.247Z,26.27
2018-01-15T17:03:08.787Z,25.70
2018-01-15T17:05:36.391Z,23.07
2018-01-15T17:08:03.941Z,27.87
2018-01-15T17:10:31.483Z,27.70
2018-01-15T17:12:59.129Z,31.60
2018-01-15T17:15:26.670Z,33.37
2018-01-15T17:17:54.269Z,29.73
2018-01-15T17:20:21.870Z,26.67
2018-01-15T17:22:49.410Z,32.10
2018-01-15T17:25:17.050Z,29.07
2018-01-15T17:27:44.706Z,28.30
2018-01-15T17:30:12.308Z,29.50
2018-01-15T17:32:39.914Z,20.80
2018-01-15T17:35:07.514Z,21.80
2018-01-15T17:37:35.126Z,25.83
2018-01-15T17:40:02.723Z,30.20
2018-01-15T17:42:30.279Z,27.30
2018-01-15T17:44:57.837Z,29.20
2018-01-15T17:47:25.507Z,24.33
2018-01-15T17:49:53.097Z,28.30
2018-01-15T17:52:20.637Z,24.20
2018-01-15T17:54:48.177Z,25.20
2018-01-15T17:57:15.787Z,22.33
2018-01-15T17:59:43.333Z,40.57
2018-01-15T18:02:10.914Z,24.20
2018-01-15T18:04:38.450Z,25.97
2018-01-15T18:07:05.990Z,26.73
2018-01-15T18:09:33.602Z,25.30
2018-01-15T18:12:01.206Z,30.57
2018-01-15T18:14:28.886Z,31.47
2018-01-15T18:16:56.481Z,28.40
2018-01-15T18:19:24.082Z,22.70
2018-01-15T18:21:51.697Z,24.57
2018-01-15T18:24:19.242Z,23.10
2018-01-15T18:26:46.903Z,32.77
2018-01-15T18:29:14.502Z,24.97
2018-01-15T18:31:42.050Z,17.70
2018-01-15T18:34:09.598Z,24.67
2018-01-15T18:36:37.139Z,23.73
2018-01-15T18:39:04.797Z,22.87
2018-01-15T18:41:32.406Z,29.17
2018-01-15T18:43:59.942Z,23.40
2018-01-15T18:46:27.489Z,24.30
2018-01-15T18:48:55.030Z,24.20
2018-01-15T18:51:22.669Z,29.80
2018-01-15T18:53:50.212Z,27.30
2018-01-15T18:56:17.753Z,20.50
2018-01-15T18:58:45.306Z,29.27
2018-01-15T19:01:12.846Z,23.63
2018-01-15T19:03:40.450Z,23.70
2018-01-15T19:06:08.001Z,27.57
2018-01-15T19:08:35.545Z,25.17
2018-01-15T19:11:03.098Z,26.40
2018-01-15T19:13:30.642Z,24.03
2018-01-15T19:15:58.253Z,23.37
2018-01-15T19:18:25.850Z,26.13
2018-01-15T19:20:53.453Z,32.97
2018-01-15T19:23:21.006Z,27.43
2018-01-15T19:25:48.543Z,30.27
2018-01-15T19:28:16.178Z,28.40
2018-01-15T19:30:43.754Z,26.63
2018-01-15T19:33:11.333Z,26.70
2018-01-15T19:35:44.354Z,29.80
2018-01-15T19:38:13.398Z,30.40
2018-01-15T19:40:41.050Z,26.47
2018-01-15T19:46:18.214Z,29.20
2018-01-15T19:48:51.302Z,28.90
2018-01-15T19:51:24.598Z,30.67
2018-01-15T19:53:57.808Z,26.53
2018-01-15T19:56:30.817Z,23.20
2018-01-15T19:59:03.943Z,28.43
2018-01-15T20:01:37.226Z,27.07
2018-01-15T20:04:10.350Z,27.93
2018-01-15T20:06:43.671Z,24.13
2018-01-15T20:09:16.753Z,25.43
2018-01-15T20:11:44.455Z,27.80
2018-01-15T20:14:12.046Z,28.70
2018-01-15T20:16:39.582Z,25.90
2018-01-15T20:19:07.138Z,26.33
2018-01-15T20:21:34.722Z,31.93
2018-01-15T20:24:02.307Z,29.47
2018-01-15T20:26:29.851Z,25.43
2018-01-15T20:28:57.403Z,25.60
2018-01-15T20:31:24.958Z,24.60
2018-01-15T20:33:52.557Z,25.03
2018-01-15T20:36:20.138Z,24.90
2018-01-15T20:38:47.735Z,25.07
2018-01-15T20:41:15.273Z,22.70
2018-01-15T20:43:42.893Z,23.30
2018-01-15T20:46:10.435Z,19.17
2018-01-15T20:48:38.086Z,20.27
2018-01-15T20:51:05.686Z,28.73
2018-01-15T20:53:33.225Z,24.63
2018-01-15T20:56:00.774Z,21.27
2018-01-15T20:58:28.371Z,22.33
2018-01-15T21:00:55.986Z,27.43
2018-01-15T21:03:23.530Z,25.70
2018-01-15T21:05:51.070Z,23.07
2018-01-15T21:08:18.675Z,23.13
2018-01-15T21:10:46.215Z,21.67
2018-01-15T21:13:13.795Z,27.97
2018-01-15T21:15:41.334Z,35.47
2018-01-15T21:18:08.878Z,37.30
2018-01-15T21:20:36.494Z,31.93
2018-01-15T21:23:04.123Z,31.10
2018-01-15T21:25:31.708Z,27.03
2018-01-15T21:27:59.307Z,25.00
2018-01-15T21:30:26.862Z,27.60
2018-01-15T21:32:54.418Z,27.40
2018-01-15T21:35:21.955Z,29.90
2018-01-15T21:37:49.630Z,38.83
2018-01-15T21:40:17.286Z,36.03
2018-01-15T21:42:44.895Z,38.13
2018-01-15T21:45:12.443Z,29.03
2018-01-15T21:47:39.989Z,23.40
2018-01-15T21:50:07.601Z,23.80
2018-01-15T21:52:35.211Z,26.83
2018-01-15T21:55:02.750Z,30.70
2018-01-15T21:57:30.354Z,23.83
2018-01-15T21:59:57.898Z,21.47
2018-01-15T22:02:25.571Z,26.47
2018-01-15T22:04:53.118Z,28.20
2018-01-15T22:07:20.662Z,19.90
2018-01-15T22:09:48.320Z,24.70
2018-01-15T22:12:15.910Z,22.53
2018-01-15T22:14:43.523Z,23.03
2018-01-15T22:17:11.061Z,22.80
2018-01-15T22:19:38.602Z,21.57
2018-01-15T22:22:06.216Z,19.43
2018-01-15T22:24:33.762Z,17.80
2018-01-15T22:27:01.370Z,17.40
2018-01-15T22:29:28.909Z,22.67
2018-01-15T22:31:56.506Z,19.87
2018-01-15T22:34:24.115Z,21.90
2018-01-15T22:36:51.758Z,20.70
2018-01-15T22:39:19.334Z,18.40
2018-01-15T22:41:46.874Z,17.10
2018-01-15T22:44:14.413Z,19.30
2018-01-15T22:46:41.966Z,20.30
2018-01-15T22:49:09.511Z,20.00
2018-01-15T22:51:37.094Z,18.83
2018-01-15T22:54:04.699Z,17.50
2018-01-15T22:56:32.259Z,17.10
2018-01-15T22:58:59.874Z,19.67
2018-01-15T23:01:27.414Z,15.60
2018-01-15T23:03:55.063Z,18.00
2018-01-15T23:06:22.607Z,17.23
2018-01-15T23:08:50.154Z,16.93
2018-01-15T23:11:17.714Z,17.57
2018-01-15T23:13:45.266Z,19.87
2018-01-15T23:16:12.939Z,16.63
2018-01-15T23:18:40.539Z,14.90
2018-01-15T23:21:08.077Z,15.03
2018-01-15T23:23:35.629Z,17.40
2018-01-15T23:26:03.235Z,17.70
2018-01-15T23:28:30.846Z,16.57
2018-01-15T23:30:58.446Z,15.83
2018-01-15T23:33:26.047Z,16.30
2018-01-15T23:35:53.599Z,16.17
2018-01-15T23:38:21.145Z,12.70
2018-01-15T23:40:48.738Z,17.30
2018-01-15T23:43:16.318Z,17.30
2018-01-15T23:45:43.961Z,17.73
2018-01-15T23:48:11.501Z,16.30
2018-01-15T23:50:39.150Z,15.90
2018-01-15T23:53:06.734Z,16.93
2018-01-15T23:55:34.386Z,14.40
2018-01-15T23:58:01.982Z,16.90
